Time;durP1;ratioP1;P1;durP2;ratioP2;P2;SDS_P1;SDS_P2;PMS_P1;PMS_P2;Temp;Humidity;BMP_temperature;BMP_pressure;BME280_temperature;BME280_humidity;BME280_pressure;Samples;Min_cycle;Max_cycle;Signal;HPM_P1;HPM_P2
2021/04/16 00:01:24;;;;;;;1.60;1.40;;;4.00;88.60;;;;;;5011737;28;20694;-79
2021/04/16 00:03:51;;;;;;;1.53;1.40;;;4.00;88.20;;;;;;5005900;28;20476;-79
2021/04/16 00:06:17;;;;;;;1.57;1.40;;;4.00;88.80;;;;;;5006056;28;20528;-79
2021/04/16 00:08:43;;;;;;;1.60;1.50;;;4.00;89.10;;;;;;5009436;28;20469;-81
2021/04/16 00:11:13;;;;;;;1.60;1.50;;;3.90;88.90;;;;;;5016129;28;20484;-80
2021/04/16 00:13:40;;;;;;;1.60;1.40;;;3.90;89.10;;;;;;5008897;28;20472;-80
2021/04/16 00:16:09;;;;;;;1.60;1.50;;;3.90;89.60;;;;;;5006729;28;20485;-79
2021/04/16 00:18:35;;;;;;;1.60;1.40;;;3.90;90.00;;;;;;5011370;28;20486;-78
2021/04/16 00:21:02;;;;;;;1.60;1.40;;;3.80;89.70;;;;;;5003891;28;20493;-78
2021/04/16 00:23:29;;;;;;;1.60;1.50;;;3.80;89.50;;;;;;5005610;28;20840;-78
2021/04/16 00:25:55;;;;;;;1.53;1.40;;;3.80;89.90;;;;;;5014669;28;20460;-78
2021/04/16 00:28:22;;;;;;;1.57;1.40;;;3.70;89.80;;;;;;5015825;28;20468;-77
2021/04/16 00:30:50;;;;;;;1.60;1.40;;;3.70;90.30;;;;;;5002748;28;20526;-76
2021/04/16 00:33:18;;;;;;;1.50;1.30;;;3.70;90.20;;;;;;5008946;28;20676;-79
2021/04/16 00:35:44;;;;;;;1.60;1.40;;;3.70;90.60;;;;;;5012236;28;20488;-79
2021/04/16 00:38:12;;;;;;;1.60;1.50;;;3.60;90.20;;;;;;5010919;28;20486;-78
2021/04/16 00:40:41;;;;;;;1.57;1.40;;;3.60;90.30;;;;;;5004890;28;20484;-80
2021/04/16 00:43:10;;;;;;;1.60;1.50;;;3.60;90.50;;;;;;5009072;28;20467;-79
2021/04/16 00:45:37;;;;;;;1.60;1.50;;;3.60;90.40;;;;;;5015488;28;20457;-78
2021/04/16 00:48:09;;;;;;;1.60;1.40;;;3.60;90.50;;;;;;5015654;28;20472;-79
2021/04/16 00:50:47;;;;;;;1.60;1.50;;;3.60;90.60;;;;;;5011694;28;20483;-78
2021/04/16 00:53:14;;;;;;;1.60;1.50;;;3.60;90.90;;;;;;5009327;28;20487;-78
2021/04/16 00:55:40;;;;;;;1.57;1.40;;;3.50;91.40;;;;;;5012694;28;20498;-78
2021/04/16 00:58:07;;;;;;;1.50;1.40;;;3.50;91.30;;;;;;5004861;28;20468;-78
2021/04/16 01:00:33;;;;;;;1.60;1.43;;;3.50;91.20;;;;;;5010730;28;20492;-78
2021/04/16 01:03:01;;;;;;;1.60;1.40;;;3.50;91.40;;;;;;5010123;28;20551;-77
2021/04/16 01:05:27;;;;;;;1.60;1.50;;;3.50;91.30;;;;;;5010872;28;20467;-78
2021/04/16 01:07:55;;;;;;;1.60;1.50;;;3.50;91.00;;;;;;4993554;28;20475;-76
2021/04/16 01:10:21;;;;;;;1.57;1.40;;;3.50;91.70;;;;;;4997899;28;20484;-76
2021/04/16 01:12:48;;;;;;;1.57;1.40;;;3.40;91.70;;;;;;5005582;28;20466;-78
2021/04/16 01:15:26;;;;;;;1.60;1.50;;;3.40;91.70;;;;;;5008122;28;20898;-75
2021/04/16 01:17:54;;;;;;;1.70;1.60;;;3.40;91.80;;;;;;5007033;28;20960;-78
2021/04/16 01:20:23;;;;;;;1.67;1.57;;;3.50;91.90;;;;;;4998892;28;20507;-77
2021/04/16 01:22:59;;;;;;;1.53;1.30;;;3.50;91.70;;;;;;5007650;28;20465;-77
2021/04/16 01:25:28;;;;;;;1.60;1.40;;;3.40;91.70;;;;;;5001660;28;20460;-77
2021/04/16 01:27:54;;;;;;;1.57;1.40;;;3.50;92.30;;;;;;5008745;28;20872;-78
2021/04/16 01:30:24;;;;;;;1.57;1.40;;;3.50;92.50;;;;;;5000284;28;20618;-77
2021/04/16 01:32:52;;;;;;;1.50;1.40;;;3.50;93.00;;;;;;4996326;28;20528;-76
2021/04/16 01:35:21;;;;;;;1.60;1.50;;;3.50;92.00;;;;;;5004793;28;20480;-78
2021/04/16 01:37:48;;;;;;;1.57;1.40;;;3.50;92.10;;;;;;5005730;28;20457;-78
2021/04/16 01:40:15;;;;;;;1.57;1.40;;;3.40;92.10;;;;;;5009620;28;20463;-76
2021/04/16 01:42:42;;;;;;;1.80;1.70;;;3.40;91.70;;;;;;5010199;28;20468;-76
2021/04/16 01:45:16;;;;;;;1.60;1.47;;;3.40;92.20;;;;;;5006120;28;20464;-76
2021/04/16 01:47:42;;;;;;;1.60;1.50;;;3.40;92.40;;;;;;4993874;28;20480;-76
2021/04/16 01:50:09;;;;;;;1.60;1.40;;;3.40;92.50;;;;;;5008292;28;20467;-77
2021/04/16 01:52:36;;;;;;;1.57;1.40;;;3.40;93.10;;;;;;5008516;28;20516;-78
2021/04/16 01:55:06;;;;;;;1.63;1.53;;;3.40;92.90;;;;;;5006289;28;20481;-79
2021/04/16 01:57:35;;;;;;;1.60;1.50;;;3.40;93.10;;;;;;5007414;28;20837;-77
2021/04/16 02:00:06;;;;;;;1.60;1.50;;;3.30;93.00;;;;;;5014931;28;20682;-78
2021/04/16 02:02:34;;;;;;;1.60;1.50;;;3.40;93.20;;;;;;4998289;28;20560;-75
2021/04/16 02:05:01;;;;;;;1.60;1.50;;;3.40;92.70;;;;;;5004543;28;20457;-76
2021/04/16 02:07:28;;;;;;;1.60;1.50;;;3.40;93.00;;;;;;5008485;28;21001;-75
2021/04/16 02:09:55;;;;;;;1.57;1.40;;;3.40;92.50;;;;;;5009607;28;20547;-75
2021/04/16 02:12:23;;;;;;;1.60;1.50;;;3.40;93.00;;;;;;5004383;28;20491;-77
2021/04/16 02:14:51;;;;;;;1.60;1.50;;;3.40;93.40;;;;;;5006616;28;20488;-78
2021/04/16 02:17:20;;;;;;;1.60;1.50;;;3.40;93.30;;;;;;5013112;28;20460;-78
2021/04/16 02:19:47;;;;;;;1.57;1.47;;;3.40;93.20;;;;;;5011386;28;20482;-76
2021/04/16 02:22:18;;;;;;;1.60;1.50;;;3.40;93.50;;;;;;5008379;28;20492;-77
2021/04/16 02:24:45;;;;;;;1.60;1.43;;;3.50;93.00;;;;;;5010332;28;20463;-78
2021/04/16 02:27:12;;;;;;;1.53;1.40;;;3.50;93.00;;;;;;5007215;28;20846;-77
2021/04/16 02:29:39;;;;;;;1.57;1.40;;;3.50;93.50;;;;;;5007194;28;21202;-79
2021/04/16 02:32:06;;;;;;;1.60;1.50;;;3.60;93.30;;;;;;5003535;28;20491;-77
2021/04/16 02:34:33;;;;;;;1.53;1.40;;;3.60;93.20;;;;;;5010653;28;21687;-78
2021/04/16 02:37:03;;;;;;;1.60;1.40;;;3.60;93.10;;;;;;5009823;28;20460;-77
2021/04/16 02:39:31;;;;;;;1.70;1.60;;;3.70;93.40;;;;;;5009454;28;20472;-78
2021/04/16 02:41:57;;;;;;;1.60;1.50;;;3.70;93.60;;;;;;5009046;28;20499;-77
2021/04/16 02:44:24;;;;;;;1.50;1.40;;;3.80;94.20;;;;;;5012903;28;20475;-76
2021/04/16 02:46:51;;;;;;;1.50;1.30;;;3.80;94.30;;;;;;5012294;28;20846;-78
2021/04/16 02:49:19;;;;;;;1.60;1.40;;;3.90;94.00;;;;;;5007873;28;20463;-77
2021/04/16 02:51:46;;;;;;;1.60;1.50;;;3.90;93.50;;;;;;5007998;28;21032;-77
2021/04/16 02:54:13;;;;;;;1.50;1.37;;;4.00;93.80;;;;;;5006579;28;20477;-77
2021/04/16 02:56:39;;;;;;;1.50;1.37;;;4.00;94.10;;;;;;5012957;28;20847;-78
2021/04/16 02:59:07;;;;;;;1.60;1.50;;;4.10;94.20;;;;;;5010958;28;20854;-79
2021/04/16 03:01:33;;;;;;;1.70;1.60;;;4.10;93.90;;;;;;5015900;28;20486;-78
2021/04/16 03:04:00;;;;;;;1.50;1.37;;;4.10;94.20;;;;;;5006313;28;20461;-77
2021/04/16 03:06:26;;;;;;;1.60;1.43;;;4.20;94.80;;;;;;5011440;28;20456;-78
2021/04/16 03:08:54;;;;;;;1.57;1.40;;;4.20;94.40;;;;;;5010587;28;20471;-77
2021/04/16 03:11:21;;;;;;;1.57;1.40;;;4.20;94.30;;;;;;5010229;28;20497;-77
2021/04/16 03:13:48;;;;;;;1.60;1.50;;;4.30;94.20;;;;;;5002555;28;20525;-77
2021/04/16 03:16:15;;;;;;;1.60;1.40;;;4.30;94.40;;;;;;5009812;28;20484;-77
2021/04/16 03:18:41;;;;;;;1.60;1.50;;;4.40;94.20;;;;;;5012167;28;20471;-77
2021/04/16 03:21:07;;;;;;;1.50;1.40;;;4.40;94.10;;;;;;5006941;28;21186;-78
2021/04/16 03:23:33;;;;;;;1.50;1.37;;;4.40;94.50;;;;;;5006695;28;20468;-77
2021/04/16 03:26:01;;;;;;;1.53;1.40;;;4.40;94.30;;;;;;5015507;28;20464;-77
2021/04/16 03:28:27;;;;;;;1.50;1.30;;;4.50;94.30;;;;;;5009044;28;20476;-78
2021/04/16 03:30:53;;;;;;;1.50;1.30;;;4.50;94.10;;;;;;5009294;28;20487;-78
2021/04/16 03:33:20;;;;;;;1.50;1.33;;;4.50;94.20;;;;;;5010036;28;20487;-78
2021/04/16 03:35:47;;;;;;;1.53;1.30;;;4.50;94.10;;;;;;5014113;28;20618;-78
2021/04/16 03:38:14;;;;;;;1.57;1.40;;;4.60;94.10;;;;;;5013752;28;20457;-77
2021/04/16 03:40:40;;;;;;;1.60;1.37;;;4.60;93.60;;;;;;5007766;28;20839;-77
2021/04/16 03:43:07;;;;;;;1.50;1.30;;;4.60;93.50;;;;;;5012234;28;21027;-78
2021/04/16 03:45:34;;;;;;;1.50;1.33;;;4.70;94.10;;;;;;5016511;28;20519;-79
2021/04/16 03:48:00;;;;;;;1.60;1.30;;;4.70;93.80;;;;;;5013746;28;20555;-76
2021/04/16 03:50:30;;;;;;;1.53;1.30;;;4.70;93.40;;;;;;5004217;28;20860;-78
2021/04/16 03:52:57;;;;;;;1.57;1.30;;;4.80;93.60;;;;;;5009359;28;20484;-80
2021/04/16 03:55:27;;;;;;;1.50;1.40;;;4.80;93.10;;;;;;5015882;28;20487;-77
2021/04/16 03:57:54;;;;;;;1.57;1.40;;;4.80;92.80;;;;;;5007916;28;20468;-78
2021/04/16 04:00:25;;;;;;;1.50;1.30;;;4.80;92.50;;;;;;5012794;28;20491;-78
2021/04/16 04:02:51;;;;;;;1.57;1.40;;;4.80;93.20;;;;;;5013924;28;20508;-78
2021/04/16 04:05:18;;;;;;;1.60;1.40;;;4.80;94.20;;;;;;5009624;28;20461;-78
2021/04/16 04:07:44;;;;;;;1.53;1.30;;;4.90;93.90;;;;;;5007199;28;20464;-78
2021/04/16 04:10:12;;;;;;;1.60;1.43;;;4.90;93.90;;;;;;5008162;28;20979;-79
2021/04/16 04:12:39;;;;;;;1.57;1.37;;;4.90;93.70;;;;;;5014171;28;20464;-78
2021/04/16 04:15:06;;;;;;;1.60;1.30;;;4.90;94.00;;;;;;5010071;28;20926;-79
2021/04/16 04:17:35;;;;;;;1.53;1.40;;;4.90;93.90;;;;;;5006734;28;20484;-78
2021/04/16 04:20:03;;;;;;;1.60;1.50;;;4.90;93.90;;;;;;5014607;28;20551;-77
2021/04/16 04:22:29;;;;;;;1.53;1.30;;;4.90;93.60;;;;;;5013954;28;20464;-80
2021/04/16 04:24:55;;;;;;;1.60;1.40;;;4.90;93.40;;;;;;5009789;28;20518;-78
2021/04/16 04:27:22;;;;;;;1.53;1.30;;;5.00;93.00;;;;;;5013293;28;20609;-77
2021/04/16 04:29:48;;;;;;;1.57;1.30;;;4.90;93.80;;;;;;5014930;28;20474;-78
2021/04/16 04:32:15;;;;;;;1.53;1.40;;;4.90;93.50;;;;;;5009536;28;20488;-78
2021/04/16 04:34:42;;;;;;;1.53;1.40;;;4.90;93.70;;;;;;5013485;28;20495;-78
2021/04/16 04:37:11;;;;;;;1.50;1.40;;;4.90;93.80;;;;;;5012783;28;20484;-77
2021/04/16 04:39:42;;;;;;;1.50;1.30;;;4.90;93.50;;;;;;5009569;28;20969;-78
2021/04/16 04:42:09;;;;;;;1.53;1.30;;;4.90;93.50;;;;;;5002802;28;20535;-77
2021/04/16 04:44:35;;;;;;;1.50;1.30;;;4.90;93.50;;;;;;5007270;28;20491;-79
2021/04/16 04:47:01;;;;;;;1.50;1.40;;;4.90;93.60;;;;;;5016138;28;20455;-79
2021/04/16 04:49:28;;;;;;;1.53;1.30;;;4.90;93.50;;;;;;5015349;28;20463;-77
2021/04/16 04:52:11;;;;;;;1.53;1.30;;;4.90;93.80;;;;;;5005070;28;20576;-79
2021/04/16 04:54:38;;;;;;;1.53;1.30;;;4.90;94.20;;;;;;5009077;28;20478;-79
2021/04/16 04:57:04;;;;;;;1.50;1.30;;;4.80;94.60;;;;;;5011493;28;20959;-79
2021/04/16 04:59:31;;;;;;;1.57;1.40;;;4.80;94.90;;;;;;5007712;28;20550;-78
2021/04/16 05:01:57;;;;;;;1.57;1.40;;;4.70;95.00;;;;;;5005137;28;20492;-81
2021/04/16 05:04:23;;;;;;;1.50;1.30;;;4.70;95.00;;;;;;5001894;28;20468;-80
2021/04/16 05:06:50;;;;;;;1.60;1.40;;;4.70;95.00;;;;;;5008994;28;20460;-77
2021/04/16 05:09:17;;;;;;;1.57;1.47;;;4.70;95.00;;;;;;5008386;28;20469;-78
2021/04/16 05:11:43;;;;;;;1.50;1.30;;;4.70;94.70;;;;;;5012083;28;20551;-77
2021/04/16 05:14:09;;;;;;;1.50;1.30;;;4.70;95.00;;;;;;5013366;28;20460;-79
2021/04/16 05:16:36;;;;;;;1.60;1.40;;;4.70;94.90;;;;;;5010189;28;20479;-79
2021/04/16 05:19:02;;;;;;;1.57;1.40;;;4.70;94.70;;;;;;5008945;28;20467;-79
2021/04/16 05:21:29;;;;;;;1.50;1.40;;;4.70;94.90;;;;;;5006907;28;20489;-78
2021/04/16 05:23:56;;;;;;;1.50;1.30;;;4.70;95.10;;;;;;4997791;28;20512;-79
2021/04/16 05:26:23;;;;;;;1.57;1.30;;;4.70;95.30;;;;;;5010976;28;20824;-79
2021/04/16 05:28:50;;;;;;;1.50;1.30;;;4.70;95.40;;;;;;5015402;28;20464;-77
2021/04/16 05:31:16;;;;;;;1.60;1.47;;;4.70;94.90;;;;;;5003588;28;20980;-76
2021/04/16 05:33:42;;;;;;;1.57;1.30;;;4.80;94.70;;;;;;5002393;28;20465;-79
2021/04/16 05:36:09;;;;;;;1.60;1.40;;;4.80;94.80;;;;;;5012404;28;20488;-80
2021/04/16 05:38:35;;;;;;;1.57;1.40;;;4.80;94.70;;;;;;5012561;28;20468;-76
2021/04/16 05:41:01;;;;;;;1.50;1.40;;;4.90;94.90;;;;;;5006217;28;20495;-76
2021/04/16 05:43:29;;;;;;;1.60;1.30;;;4.90;94.80;;;;;;5005605;28;20475;-77
2021/04/16 05:46:03;;;;;;;1.60;1.40;;;5.00;94.90;;;;;;5009087;28;20468;-77
2021/04/16 05:48:29;;;;;;;1.53;1.40;;;5.00;94.80;;;;;;5011864;28;21067;-75
2021/04/16 05:50:56;;;;;;;1.57;1.30;;;5.10;94.90;;;;;;5003441;28;20567;-78
2021/04/16 05:53:23;;;;;;;1.57;1.30;;;5.10;94.90;;;;;;5006681;28;20555;-75
2021/04/16 05:55:49;;;;;;;1.57;1.40;;;5.20;94.60;;;;;;5009487;28;20847;-75
2021/04/16 05:58:15;;;;;;;1.50;1.40;;;5.30;94.50;;;;;;5004827;28;20464;-79
2021/04/16 06:00:43;;;;;;;1.57;1.30;;;5.50;94.80;;;;;;5006539;28;20491;-76
2021/04/16 06:03:10;;;;;;;1.60;1.33;;;5.60;94.10;;;;;;5004470;28;20552;-80
2021/04/16 06:05:37;;;;;;;1.93;1.83;;;5.80;94.40;;;;;;5002165;28;20475;-76
2021/04/16 06:08:05;;;;;;;1.57;1.40;;;5.90;93.80;;;;;;5004659;28;20459;-76
2021/04/16 06:10:31;;;;;;;1.50;1.30;;;6.10;93.20;;;;;;5002544;28;20526;-75
2021/04/16 06:12:58;;;;;;;1.53;1.30;;;6.20;92.90;;;;;;5008851;28;20492;-77
2021/04/16 06:15:27;;;;;;;1.50;1.30;;;6.30;92.40;;;;;;5008941;28;20906;-77
2021/04/16 06:17:55;;;;;;;1.50;1.20;;;6.40;92.40;;;;;;5008399;28;20465;-79
2021/04/16 06:20:23;;;;;;;1.50;1.30;;;6.40;91.80;;;;;;5017118;28;20523;-79
2021/04/16 06:22:51;;;;;;;1.57;1.30;;;6.50;91.90;;;;;;5007673;28;20464;-76
2021/04/16 06:25:20;;;;;;;1.60;1.30;;;6.50;91.50;;;;;;5015278;28;20460;-77
2021/04/16 06:27:46;;;;;;;1.50;1.20;;;6.60;91.60;;;;;;5016338;28;20496;-76
2021/04/16 06:30:14;;;;;;;1.50;1.30;;;6.70;91.40;;;;;;5014142;28;20901;-77
2021/04/16 06:32:41;;;;;;;1.53;1.20;;;6.70;91.60;;;;;;5005388;28;20460;-76
2021/04/16 06:35:15;;;;;;;1.50;1.20;;;6.80;91.20;;;;;;5014210;28;20487;-79
2021/04/16 06:37:41;;;;;;;1.50;1.20;;;6.80;90.90;;;;;;5024855;22;20494;-78
2021/04/16 06:40:09;;;;;;;1.53;1.30;;;6.80;90.60;;;;;;5013448;28;20493;-76
2021/04/16 06:42:36;;;;;;;1.53;1.30;;;6.90;90.80;;;;;;5014369;28;20986;-77
2021/04/16 06:45:06;;;;;;;1.50;1.20;;;7.00;90.70;;;;;;5009097;28;20504;-78
2021/04/16 06:47:37;;;;;;;1.50;1.20;;;7.10;90.20;;;;;;5008805;28;20562;-76
2021/04/16 06:50:06;;;;;;;1.50;1.20;;;7.10;89.70;;;;;;5004273;28;20464;-77
2021/04/16 06:52:36;;;;;;;1.57;1.30;;;7.20;89.60;;;;;;5005804;28;20543;-76
2021/04/16 06:55:07;;;;;;;1.53;1.20;;;7.30;89.60;;;;;;5014956;28;20570;-76
2021/04/16 06:57:41;;;;;;;1.57;1.20;;;7.30;89.80;;;;;;5014039;28;20491;-75
2021/04/16 07:00:20;;;;;;;1.50;1.20;;;7.30;89.20;;;;;;5007063;28;20482;-75
2021/04/16 07:02:52;;;;;;;1.53;1.20;;;7.40;89.30;;;;;;5003784;28;20459;-78
2021/04/16 07:05:26;;;;;;;1.57;1.20;;;7.50;89.50;;;;;;5013349;28;20835;-77
2021/04/16 07:07:57;;;;;;;1.93;1.83;;;7.60;89.30;;;;;;5010398;28;20830;-74
2021/04/16 07:10:27;;;;;;;1.60;1.30;;;7.60;89.10;;;;;;5009457;28;20484;-77
2021/04/16 07:12:54;;;;;;;1.50;1.20;;;7.70;88.70;;;;;;5010711;28;20495;-77
2021/04/16 07:15:23;;;;;;;1.50;1.20;;;7.70;88.70;;;;;;5016242;28;20488;-76
2021/04/16 07:17:50;;;;;;;1.50;1.20;;;7.80;88.80;;;;;;5008492;28;20468;-76
2021/04/16 07:20:20;;;;;;;1.50;1.20;;;7.90;87.10;;;;;;5008718;28;20478;-77
2021/04/16 07:22:48;;;;;;;1.50;1.20;;;8.00;87.30;;;;;;5011450;28;20500;-76
2021/04/16 07:25:37;;;;;;;1.57;1.20;;;8.20;87.30;;;;;;5011345;28;20490;-77
2021/04/16 07:28:05;;;;;;;1.50;1.20;;;8.40;86.40;;;;;;5013219;28;20468;-77
2021/04/16 07:30:38;;;;;;;1.50;1.20;;;8.70;85.50;;;;;;5001495;28;20495;-76
2021/04/16 07:33:09;;;;;;;1.50;1.13;;;8.80;84.60;;;;;;5004248;28;20794;-77
2021/04/16 07:35:36;;;;;;;1.50;1.20;;;8.90;84.30;;;;;;5012698;28;20491;-78
2021/04/16 07:38:06;;;;;;;1.60;1.20;;;9.00;83.00;;;;;;5008467;28;20519;-78
2021/04/16 07:40:38;;;;;;;1.50;1.20;;;9.00;83.00;;;;;;5009801;28;20538;-78
2021/04/16 07:43:05;;;;;;;1.50;1.20;;;9.10;83.50;;;;;;5014239;28;20527;-77
2021/04/16 07:45:41;;;;;;;1.50;1.20;;;9.20;81.10;;;;;;5008553;28;20460;-77
2021/04/16 07:48:33;;;;;;;1.50;1.10;;;9.20;81.70;;;;;;5000301;28;20513;-77
2021/04/16 07:51:02;;;;;;;1.50;1.10;;;9.30;81.30;;;;;;5010660;28;20480;-76
2021/04/16 07:53:34;;;;;;;1.50;1.10;;;9.30;81.70;;;;;;5009216;28;20464;-79
2021/04/16 07:56:14;;;;;;;1.73;1.47;;;9.50;80.90;;;;;;5011120;28;20559;-78
2021/04/16 07:58:41;;;;;;;1.50;1.10;;;9.70;80.30;;;;;;5011650;28;21016;-78
2021/04/16 08:01:15;;;;;;;1.50;1.10;;;9.90;80.70;;;;;;5008869;28;20567;-78
2021/04/16 08:03:48;;;;;;;1.50;1.10;;;10.20;79.30;;;;;;5007512;28;20994;-78
2021/04/16 08:06:27;;;;;;;1.50;1.10;;;10.30;79.40;;;;;;5014043;28;20464;-76
2021/04/16 08:08:54;;;;;;;1.50;1.00;;;10.30;76.60;;;;;;5008817;28;20468;-78
2021/04/16 08:11:26;;;;;;;1.50;1.20;;;10.20;77.30;;;;;;5009881;28;20658;-76
2021/04/16 08:13:55;;;;;;;1.50;1.10;;;10.20;79.10;;;;;;5012751;28;20463;-78
2021/04/16 08:16:25;;;;;;;1.50;1.10;;;10.30;77.80;;;;;;5008835;28;20845;-77
2021/04/16 08:19:10;;;;;;;1.50;1.10;;;10.30;77.30;;;;;;5000635;28;20461;-79
2021/04/16 08:21:39;;;;;;;1.50;1.10;;;10.30;77.20;;;;;;5010069;28;20484;-77
2021/04/16 08:24:14;;;;;;;1.50;1.10;;;10.30;76.50;;;;;;5007458;28;20464;-76
2021/04/16 08:26:46;;;;;;;1.50;1.10;;;10.20;77.20;;;;;;5006761;28;20519;-77
2021/04/16 08:29:22;;;;;;;1.50;1.10;;;10.30;76.80;;;;;;5003394;28;20993;-76
2021/04/16 08:31:53;;;;;;;1.50;1.10;;;10.30;77.90;;;;;;4999893;22;20493;-78
2021/04/16 08:34:23;;;;;;;1.50;1.00;;;10.30;78.10;;;;;;4974443;28;20465;-77
2021/04/16 08:36:51;;;;;;;1.50;1.13;;;10.30;77.70;;;;;;4967066;28;20516;-79
2021/04/16 08:39:26;;;;;;;1.50;1.07;;;10.40;78.30;;;;;;4965502;28;20919;-75
2021/04/16 08:41:57;;;;;;;1.50;1.00;;;10.30;78.40;;;;;;4965164;28;20489;-76
2021/04/16 08:44:27;;;;;;;1.50;1.10;;;10.30;78.50;;;;;;4962827;28;20881;-74
2021/04/16 08:46:55;;;;;;;1.50;1.00;;;10.40;78.80;;;;;;4967299;28;20675;-81
2021/04/16 08:49:25;;;;;;;1.50;1.10;;;10.50;78.80;;;;;;4966677;28;20887;-77
2021/04/16 08:51:54;;;;;;;1.50;1.10;;;10.70;78.80;;;;;;4967343;28;20509;-76
2021/04/16 08:54:25;;;;;;;1.50;1.03;;;10.80;76.40;;;;;;4963728;28;20538;-78
2021/04/16 08:56:59;;;;;;;1.50;1.20;;;10.90;77.60;;;;;;4965948;28;20485;-76
2021/04/16 08:59:28;;;;;;;1.50;1.00;;;10.90;77.20;;;;;;4967484;28;20699;-76
2021/04/16 09:01:58;;;;;;;1.50;1.10;;;10.80;75.50;;;;;;4963832;28;20497;-78
2021/04/16 09:04:48;;;;;;;1.50;1.10;;;10.90;75.90;;;;;;4964380;28;20454;-76
2021/04/16 09:07:39;;;;;;;1.50;1.10;;;11.00;75.50;;;;;;4965224;28;20634;-75
2021/04/16 09:10:27;;;;;;;1.50;1.00;;;11.10;74.70;;;;;;4961405;28;20530;-77
2021/04/16 09:12:55;;;;;;;1.50;1.00;;;11.10;74.60;;;;;;4960133;28;20481;-76
2021/04/16 09:15:44;;;;;;;1.50;1.00;;;11.30;75.50;;;;;;4970109;28;20494;-75
2021/04/16 09:18:34;;;;;;;1.50;1.00;;;11.50;75.30;;;;;;4965081;28;20612;-77
2021/04/16 09:21:26;;;;;;;1.70;1.27;;;11.80;74.50;;;;;;4968749;28;20525;-77
2021/04/16 09:24:13;;;;;;;1.93;1.73;;;12.10;73.30;;;;;;4969489;28;20466;-77
2021/04/16 09:27:00;;;;;;;1.50;0.97;;;12.50;71.90;;;;;;4969427;28;20462;-79
2021/04/16 09:29:52;;;;;;;1.50;1.00;;;12.70;71.20;;;;;;4971587;28;20470;-77
2021/04/16 09:32:46;;;;;;;1.50;1.10;;;12.80;71.00;;;;;;4943145;28;20581;-77
2021/04/16 09:35:47;;;;;;;1.50;1.00;;;13.00;70.50;;;;;;4958453;28;20474;-79
2021/04/16 09:38:40;;;;;;;1.50;1.00;;;13.10;69.60;;;;;;4975939;28;20467;-77
2021/04/16 09:41:36;;;;;;;1.50;1.00;;;13.30;69.90;;;;;;4950114;28;20497;-77
2021/04/16 09:44:35;;;;;;;1.50;1.00;;;13.60;68.50;;;;;;4976645;28;20484;-77
2021/04/16 09:47:04;;;;;;;1.50;0.90;;;13.80;68.80;;;;;;4971714;28;20468;-77
2021/04/16 09:49:34;;;;;;;1.50;1.00;;;13.80;68.50;;;;;;4979181;28;20485;-80
2021/04/16 09:52:44;;;;;;;1.50;1.00;;;13.80;68.40;;;;;;4978235;28;20573;-78
2021/04/16 09:55:57;;;;;;;1.50;1.00;;;13.60;67.00;;;;;;4963044;28;21012;-77
2021/04/16 09:58:58;;;;;;;1.47;1.00;;;13.60;67.70;;;;;;4977541;28;20965;-76
2021/04/16 10:01:26;;;;;;;1.50;0.90;;;13.40;68.10;;;;;;4976274;28;20564;-77
2021/04/16 10:03:55;;;;;;;1.50;1.00;;;13.30;67.00;;;;;;4958428;28;20482;-81
2021/04/16 10:06:32;;;;;;;1.50;1.00;;;13.30;66.50;;;;;;4963404;28;20966;-78
2021/04/16 10:09:24;;;;;;;1.50;0.97;;;13.20;67.40;;;;;;4963938;28;20477;-78
2021/04/16 10:11:57;;;;;;;1.50;1.00;;;13.10;68.80;;;;;;4971772;28;20485;-79
2021/04/16 10:14:30;;;;;;;1.50;1.00;;;13.20;68.30;;;;;;4968432;28;20474;-80
2021/04/16 10:16:59;;;;;;;1.50;1.00;;;13.00;67.30;;;;;;4965628;28;20544;-80
2021/04/16 10:19:29;;;;;;;1.50;0.90;;;13.00;68.00;;;;;;4974045;28;20462;-80
2021/04/16 10:21:56;;;;;;;1.50;1.00;;;12.80;68.20;;;;;;4965921;28;20492;-80
2021/04/16 12:39:44;;;;;;;1.50;0.90;;;15.10;57.80;;;;;;4970087;28;20477;-76
2021/04/16 12:42:11;;;;;;;1.50;0.90;;;14.90;57.10;;;;;;4968962;28;20521;-77
2021/04/16 12:44:40;;;;;;;1.47;1.00;;;14.70;58.10;;;;;;4965734;28;20473;-77
2021/04/16 12:47:11;;;;;;;1.47;1.00;;;14.60;59.10;;;;;;4962458;28;20471;-78
2021/04/16 12:49:37;;;;;;;1.50;1.00;;;14.90;59.90;;;;;;4965213;28;20486;-79
2021/04/16 12:52:06;;;;;;;1.47;0.90;;;15.20;60.20;;;;;;4964793;28;20486;-78
2021/04/16 12:54:37;;;;;;;1.50;1.00;;;15.40;57.80;;;;;;4968155;28;20945;-79
2021/04/16 12:57:04;;;;;;;1.47;0.93;;;15.50;57.60;;;;;;4970072;28;20498;-78
2021/04/16 12:59:31;;;;;;;1.50;0.90;;;15.60;57.90;;;;;;4969228;28;20477;-77
2021/04/16 13:01:58;;;;;;;1.50;0.90;;;15.80;56.80;;;;;;4971234;28;20516;-77
2021/04/16 13:04:26;;;;;;;1.50;0.90;;;16.00;57.80;;;;;;4968120;28;20470;-77
2021/04/16 13:06:58;;;;;;;1.50;0.90;;;16.30;58.90;;;;;;4966411;28;20488;-77
2021/04/16 13:09:24;;;;;;;1.50;0.90;;;16.30;57.90;;;;;;4968778;28;20462;-79
2021/04/16 13:11:51;;;;;;;1.50;0.90;;;16.20;59.20;;;;;;4965782;28;20762;-77
2021/04/16 13:14:18;;;;;;;1.50;0.90;;;16.10;58.20;;;;;;4963812;28;20992;-81
2021/04/16 13:16:46;;;;;;;1.47;0.90;;;16.10;56.00;;;;;;4968288;28;20486;-79
2021/04/16 13:19:23;;;;;;;1.50;0.90;;;15.80;54.80;;;;;;4970433;28;20462;-76
2021/04/16 13:21:55;;;;;;;1.47;0.90;;;15.70;56.00;;;;;;4965787;28;20759;-77
2021/04/16 13:24:21;;;;;;;1.47;0.90;;;15.70;54.80;;;;;;4959966;28;20802;-76
2021/04/16 13:26:48;;;;;;;1.50;0.90;;;15.80;57.10;;;;;;4959207;28;20473;-79
2021/04/16 13:29:14;;;;;;;1.40;0.90;;;15.90;56.00;;;;;;4965448;28;20464;-77
2021/04/16 13:31:40;;;;;;;1.43;0.90;;;15.50;55.50;;;;;;4968595;28;20703;-78
2021/04/16 13:34:07;;;;;;;1.47;0.90;;;15.40;57.10;;;;;;4966910;28;20499;-77
2021/04/16 13:36:34;;;;;;;1.50;0.90;;;15.50;58.20;;;;;;4962820;28;20489;-79
2021/04/16 13:39:01;;;;;;;1.47;0.90;;;15.70;58.50;;;;;;4976804;28;21033;-78
2021/04/16 13:41:28;;;;;;;1.50;0.90;;;15.60;56.70;;;;;;4962083;28;20496;-77
2021/04/16 13:43:55;;;;;;;1.43;0.90;;;15.40;56.60;;;;;;4969063;28;20458;-78
2021/04/16 13:46:24;;;;;;;2.07;1.87;;;15.20;56.00;;;;;;4960207;28;20480;-79
2021/04/16 13:48:51;;;;;;;1.50;1.00;;;15.00;57.40;;;;;;4973960;28;20462;-78
2021/04/16 13:51:21;;;;;;;1.50;1.00;;;15.20;56.60;;;;;;4962436;28;21021;-78
2021/04/16 13:53:49;;;;;;;1.50;1.00;;;15.30;56.90;;;;;;4972346;28;21054;-79
2021/04/16 13:56:16;;;;;;;1.70;1.33;;;15.30;56.50;;;;;;4958779;28;20488;-75
2021/04/16 13:58:43;;;;;;;1.47;0.90;;;15.20;57.60;;;;;;4973593;28;20490;-79
2021/04/16 14:01:10;;;;;;;1.47;0.90;;;15.20;56.80;;;;;;4957312;28;20655;-78
2021/04/16 14:03:40;;;;;;;1.47;0.90;;;15.20;57.70;;;;;;4974912;28;20462;-75
2021/04/16 14:06:11;;;;;;;1.47;0.90;;;15.20;57.90;;;;;;4964068;28;20624;-76
2021/04/16 14:08:40;;;;;;;1.43;1.00;;;15.20;57.50;;;;;;4962016;28;20481;-76
2021/04/16 14:11:08;;;;;;;1.43;0.90;;;15.30;58.60;;;;;;4968473;28;20695;-79
2021/04/16 14:13:35;;;;;;;1.50;1.00;;;15.50;57.60;;;;;;4966469;28;20466;-79
2021/04/16 14:16:03;;;;;;;1.50;1.00;;;15.50;58.30;;;;;;4960073;28;20486;-78
2021/04/16 14:18:34;;;;;;;1.47;0.90;;;15.50;57.10;;;;;;4960738;28;20543;-78
2021/04/16 14:21:03;;;;;;;1.50;1.00;;;15.10;57.10;;;;;;4964910;28;21060;-80
2021/04/16 14:23:29;;;;;;;1.50;0.93;;;14.80;57.40;;;;;;4958181;28;20493;-80
2021/04/16 14:25:55;;;;;;;1.47;0.93;;;14.60;58.00;;;;;;4962221;28;20480;-79
2021/04/16 14:28:24;;;;;;;1.47;1.00;;;14.50;58.60;;;;;;4962611;28;20531;-76
2021/04/16 14:30:52;;;;;;;1.50;0.90;;;14.40;58.70;;;;;;4954101;28;20877;-75
2021/04/16 14:33:24;;;;;;;1.50;1.00;;;14.40;60.50;;;;;;4968939;28;20465;-76
2021/04/16 14:35:50;;;;;;;1.40;1.00;;;14.40;59.70;;;;;;4971638;28;20573;-79
2021/04/16 14:38:17;;;;;;;1.47;0.90;;;14.60;59.80;;;;;;4973175;28;20884;-78
2021/04/16 14:40:44;;;;;;;1.50;1.00;;;14.70;60.30;;;;;;4971361;28;20867;-78
2021/04/16 14:43:11;;;;;;;1.50;1.00;;;14.90;60.30;;;;;;4972047;28;20465;-78
2021/04/16 14:45:41;;;;;;;1.50;0.90;;;15.00;60.30;;;;;;4970015;28;20496;-77
2021/04/16 14:48:08;;;;;;;1.47;1.00;;;15.10;59.40;;;;;;4983611;28;20465;-78
2021/04/16 14:50:35;;;;;;;1.50;1.00;;;15.20;59.40;;;;;;4966954;28;20502;-77
2021/04/16 14:53:04;;;;;;;1.50;1.10;;;15.30;60.00;;;;;;4968821;28;20462;-79
2021/04/16 14:55:33;;;;;;;1.43;0.90;;;15.20;60.10;;;;;;4967425;28;20476;-77
2021/04/16 14:58:00;;;;;;;1.43;0.90;;;15.20;60.30;;;;;;4974132;28;20476;-79
2021/04/16 15:00:29;;;;;;;1.50;1.00;;;15.30;60.10;;;;;;4967642;28;20490;-78
2021/04/16 15:02:57;;;;;;;1.43;1.00;;;15.30;59.80;;;;;;4966711;28;20949;-78
2021/04/16 15:05:23;;;;;;;1.43;0.90;;;15.30;59.50;;;;;;4964935;28;20560;-78
2021/04/16 15:07:53;;;;;;;1.43;0.90;;;15.20;59.50;;;;;;4968220;28;20477;-77
2021/04/16 15:10:23;;;;;;;1.47;1.00;;;15.10;58.60;;;;;;4963286;28;20473;-78
2021/04/16 15:12:49;;;;;;;1.50;0.90;;;15.00;59.30;;;;;;4965195;28;20485;-78
2021/04/16 15:15:32;;;;;;;1.50;0.90;;;14.90;60.40;;;;;;4970951;28;20466;-78
2021/04/16 15:17:59;;;;;;;1.50;1.00;;;14.90;59.90;;;;;;4970634;28;20461;-79
2021/04/16 15:20:28;;;;;;;1.47;1.00;;;15.00;60.00;;;;;;4967015;28;20490;-80
2021/04/16 15:22:55;;;;;;;1.40;0.93;;;15.00;60.00;;;;;;4962473;28;20460;-76